sensor_id;sensor_type;location;lat;lon;timestamp;pressure;altitude;pressure_sealevel;temperature;humidity
80629;BME280;69983;42.370;-71.210;2023-08-24T00:00:01;101645.21;;;25.23;23.37
80629;BME280;69983;42.370;-71.210;2023-08-24T00:02:01;101642.65;;;25.12;23.28
80629;BME280;69983;42.370;-71.210;2023-08-24T00:04:02;101646.15;;;24.88;23.07
80629;BME280;69983;42.370;-71.210;2023-08-24T00:06:02;101653.26;;;24.66;23.16
80629;BME280;69983;42.370;-71.210;2023-08-24T00:08:04;101654.19;;;24.22;23.15
80629;BME280;69983;42.370;-71.210;2023-08-24T00:10:04;101655.26;;;23.76;23.96
80629;BME280;69983;42.370;-71.210;2023-08-24T00:12:05;101658.30;;;23.50;24.12
80629;BME280;69983;42.370;-71.210;2023-08-24T00:14:05;101655.29;;;24.41;23.60
80629;BME280;69983;42.370;-71.210;2023-08-24T00:16:05;101656.75;;;24.90;23.34
80629;BME280;69983;42.370;-71.210;2023-08-24T00:18:06;101661.41;;;24.63;23.62
80629;BME280;69983;42.370;-71.210;2023-08-24T00:20:07;101664.14;;;25.24;23.00
80629;BME280;69983;42.370;-71.210;2023-08-24T00:22:07;101663.15;;;25.14;22.95
80629;BME280;69983;42.370;-71.210;2023-08-24T00:24:08;101666.64;;;24.66;22.94
80629;BME280;69983;42.370;-71.210;2023-08-24T00:26:09;101666.63;;;24.90;22.93
80629;BME280;69983;42.370;-71.210;2023-08-24T00:28:09;101673.50;;;24.04;23.57
80629;BME280;69983;42.370;-71.210;2023-08-24T00:30:10;101683.32;;;23.94;23.80
80629;BME280;69983;42.370;-71.210;2023-08-24T00:32:15;101685.27;;;24.37;23.54
80629;BME280;69983;42.370;-71.210;2023-08-24T00:34:10;101687.90;;;25.27;22.87
80629;BME280;69983;42.370;-71.210;2023-08-24T00:36:10;101691.09;;;25.57;22.76
80629;BME280;69983;42.370;-71.210;2023-08-24T00:38:11;101694.85;;;25.91;22.85
80629;BME280;69983;42.370;-71.210;2023-08-24T00:40:12;101696.87;;;25.80;22.53
80629;BME280;69983;42.370;-71.210;2023-08-24T00:42:12;101700.51;;;25.97;22.30
80629;BME280;69983;42.370;-71.210;2023-08-24T00:44:13;101702.57;;;25.33;22.34
80629;BME280;69983;42.370;-71.210;2023-08-24T00:46:14;101707.03;;;24.87;22.50
80629;BME280;69983;42.370;-71.210;2023-08-24T00:48:15;101707.25;;;24.62;23.16
80629;BME280;69983;42.370;-71.210;2023-08-24T00:50:17;101708.68;;;24.76;23.18
80629;BME280;69983;42.370;-71.210;2023-08-24T00:52:19;101711.47;;;24.76;23.37
80629;BME280;69983;42.370;-71.210;2023-08-24T00:54:16;101717.38;;;24.84;23.30
80629;BME280;69983;42.370;-71.210;2023-08-24T00:56:16;101718.89;;;24.90;23.35
80629;BME280;69983;42.370;-71.210;2023-08-24T00:58:17;101721.54;;;24.71;23.51
80629;BME280;69983;42.370;-71.210;2023-08-24T01:00:17;101725.70;;;25.62;22.92
80629;BME280;69983;42.370;-71.210;2023-08-24T01:02:18;101727.75;;;25.58;22.50
80629;BME280;69983;42.370;-71.210;2023-08-24T01:04:18;101731.04;;;24.64;22.89
80629;BME280;69983;42.370;-71.210;2023-08-24T01:06:18;101727.62;;;24.68;22.69
80629;BME280;69983;42.370;-71.210;2023-08-24T01:08:19;101726.99;;;24.85;22.71
80629;BME280;69983;42.370;-71.210;2023-08-24T01:10:19;101731.76;;;24.62;22.99
80629;BME280;69983;42.370;-71.210;2023-08-24T01:12:24;101732.53;;;24.94;22.87
80629;BME280;69983;42.370;-71.210;2023-08-24T01:14:27;101727.84;;;25.29;22.95
80629;BME280;69983;42.370;-71.210;2023-08-24T01:16:24;101729.83;;;25.15;22.98
80629;BME280;69983;42.370;-71.210;2023-08-24T01:18:21;101732.84;;;25.18;23.05
80629;BME280;69983;42.370;-71.210;2023-08-24T01:20:21;101732.39;;;25.91;22.47
80629;BME280;69983;42.370;-71.210;2023-08-24T01:22:37;101730.84;;;25.16;22.65
80629;BME280;69983;42.370;-71.210;2023-08-24T01:24:38;101733.88;;;24.90;22.57
80629;BME280;69983;42.370;-71.210;2023-08-24T01:26:22;101739.20;;;24.91;22.37
80629;BME280;69983;42.370;-71.210;2023-08-24T01:28:22;101739.93;;;24.82;22.66
80629;BME280;69983;42.370;-71.210;2023-08-24T01:30:22;101739.45;;;25.06;22.50
80629;BME280;69983;42.370;-71.210;2023-08-24T01:32:22;101737.84;;;25.53;22.48
80629;BME280;69983;42.370;-71.210;2023-08-24T01:34:23;101738.90;;;25.22;22.61
80629;BME280;69983;42.370;-71.210;2023-08-24T01:36:23;101739.69;;;25.48;22.33
80629;BME280;69983;42.370;-71.210;2023-08-24T01:38:24;101745.33;;;25.34;22.75
80629;BME280;69983;42.370;-71.210;2023-08-24T01:40:29;101742.42;;;25.34;22.70
80629;BME280;69983;42.370;-71.210;2023-08-24T01:42:28;101739.93;;;25.53;22.38
80629;BME280;69983;42.370;-71.210;2023-08-24T01:44:27;101736.14;;;25.65;22.14
80629;BME280;69983;42.370;-71.210;2023-08-24T01:46:27;101736.82;;;25.20;22.19
80629;BME280;69983;42.370;-71.210;2023-08-24T01:48:26;101737.68;;;24.78;22.33
80629;BME280;69983;42.370;-71.210;2023-08-24T01:50:27;101738.34;;;24.62;22.73
80629;BME280;69983;42.370;-71.210;2023-08-24T01:52:28;101739.79;;;25.72;22.25
80629;BME280;69983;42.370;-71.210;2023-08-24T01:54:28;101743.55;;;25.42;22.58
80629;BME280;69983;42.370;-71.210;2023-08-24T01:56:29;101738.64;;;25.36;22.58
80629;BME280;69983;42.370;-71.210;2023-08-24T01:58:28;101737.84;;;25.34;22.71
80629;BME280;69983;42.370;-71.210;2023-08-24T02:00:29;101734.51;;;25.83;22.44
80629;BME280;69983;42.370;-71.210;2023-08-24T02:02:29;101732.63;;;25.64;22.11
80629;BME280;69983;42.370;-71.210;2023-08-24T02:04:29;101728.20;;;25.53;22.10
80629;BME280;69983;42.370;-71.210;2023-08-24T02:06:30;101731.06;;;24.94;22.45
80629;BME280;69983;42.370;-71.210;2023-08-24T02:08:31;101730.67;;;24.25;22.97
80629;BME280;69983;42.370;-71.210;2023-08-24T02:10:32;101729.97;;;24.50;22.89
80629;BME280;69983;42.370;-71.210;2023-08-24T02:12:32;101728.55;;;24.68;22.88
80629;BME280;69983;42.370;-71.210;2023-08-24T02:14:33;101731.25;;;24.99;22.78
80629;BME280;69983;42.370;-71.210;2023-08-24T02:16:33;101725.18;;;25.44;22.56
80629;BME280;69983;42.370;-71.210;2023-08-24T02:18:34;101726.19;;;25.00;22.80
80629;BME280;69983;42.370;-71.210;2023-08-24T02:20:35;101727.77;;;25.46;22.44
80629;BME280;69983;42.370;-71.210;2023-08-24T02:22:35;101727.85;;;25.23;22.28
80629;BME280;69983;42.370;-71.210;2023-08-24T02:24:35;101728.15;;;25.46;22.00
80629;BME280;69983;42.370;-71.210;2023-08-24T02:26:36;101728.34;;;24.71;22.32
80629;BME280;69983;42.370;-71.210;2023-08-24T02:28:37;101727.73;;;24.14;22.73
80629;BME280;69983;42.370;-71.210;2023-08-24T02:30:38;101720.55;;;24.53;22.63
80629;BME280;69983;42.370;-71.210;2023-08-24T02:32:43;101714.81;;;24.83;22.74
80629;BME280;69983;42.370;-71.210;2023-08-24T02:34:39;101719.38;;;24.74;22.77
80629;BME280;69983;42.370;-71.210;2023-08-24T02:36:38;101717.90;;;25.48;22.52
80629;BME280;69983;42.370;-71.210;2023-08-24T02:38:38;101719.28;;;25.31;22.56
80629;BME280;69983;42.370;-71.210;2023-08-24T02:40:38;101720.68;;;25.40;22.22
80629;BME280;69983;42.370;-71.210;2023-08-24T02:42:39;101718.85;;;25.14;22.23
80629;BME280;69983;42.370;-71.210;2023-08-24T02:44:40;101714.12;;;24.41;22.53
80629;BME280;69983;42.370;-71.210;2023-08-24T02:46:40;101715.88;;;23.93;22.51
80629;BME280;69983;42.370;-71.210;2023-08-24T02:48:41;101716.46;;;24.09;22.93
80629;BME280;69983;42.370;-71.210;2023-08-24T02:50:46;101718.54;;;24.32;22.90
80629;BME280;69983;42.370;-71.210;2023-08-24T02:52:42;101713.79;;;24.93;22.74
80629;BME280;69983;42.370;-71.210;2023-08-24T02:54:42;101712.41;;;25.04;22.59
80629;BME280;69983;42.370;-71.210;2023-08-24T02:56:42;101714.08;;;24.85;22.63
80629;BME280;69983;42.370;-71.210;2023-08-24T02:58:44;101716.34;;;25.28;22.59
80629;BME280;69983;42.370;-71.210;2023-08-24T03:00:43;101717.61;;;25.59;22.44
80629;BME280;69983;42.370;-71.210;2023-08-24T03:02:45;101718.26;;;24.78;22.57
80629;BME280;69983;42.370;-71.210;2023-08-24T03:04:43;101714.78;;;24.39;22.69
80629;BME280;69983;42.370;-71.210;2023-08-24T03:06:44;101716.17;;;24.28;22.71
80629;BME280;69983;42.370;-71.210;2023-08-24T03:08:45;101717.09;;;24.07;23.15
80629;BME280;69983;42.370;-71.210;2023-08-24T03:10:46;101719.67;;;24.52;22.87
80629;BME280;69983;42.370;-71.210;2023-08-24T03:12:45;101717.93;;;24.90;22.71
80629;BME280;69983;42.370;-71.210;2023-08-24T03:14:51;101719.80;;;24.87;22.69
80629;BME280;69983;42.370;-71.210;2023-08-24T03:16:47;101715.43;;;24.90;23.00
80629;BME280;69983;42.370;-71.210;2023-08-24T03:18:47;101714.17;;;24.92;22.77
80629;BME280;69983;42.370;-71.210;2023-08-24T03:20:49;101716.21;;;25.17;22.60
80629;BME280;69983;42.370;-71.210;2023-08-24T03:22:48;101721.73;;;24.93;22.64
80629;BME280;69983;42.370;-71.210;2023-08-24T03:24:49;101724.66;;;24.47;22.85
80629;BME280;69983;42.370;-71.210;2023-08-24T03:26:49;101726.45;;;24.08;22.75
80629;BME280;69983;42.370;-71.210;2023-08-24T03:28:49;101729.40;;;23.87;22.69
80629;BME280;69983;42.370;-71.210;2023-08-24T03:30:51;101731.53;;;24.66;22.80
80629;BME280;69983;42.370;-71.210;2023-08-24T03:32:49;101730.10;;;24.90;22.53
80629;BME280;69983;42.370;-71.210;2023-08-24T03:34:50;101729.74;;;24.83;22.54
80629;BME280;69983;42.370;-71.210;2023-08-24T03:36:49;101733.53;;;25.00;22.52
80629;BME280;69983;42.370;-71.210;2023-08-24T03:38:50;101736.06;;;25.18;22.49
80629;BME280;69983;42.370;-71.210;2023-08-24T03:40:50;101735.27;;;25.41;22.41
80629;BME280;69983;42.370;-71.210;2023-08-24T03:42:51;101742.40;;;25.74;22.25
80629;BME280;69983;42.370;-71.210;2023-08-24T03:44:51;101742.05;;;26.15;22.06
80629;BME280;69983;42.370;-71.210;2023-08-24T03:46:51;101741.42;;;25.57;22.05
80629;BME280;69983;42.370;-71.210;2023-08-24T03:48:52;101740.41;;;25.82;21.88
80629;BME280;69983;42.370;-71.210;2023-08-24T03:50:59;101741.81;;;25.22;21.82
80629;BME280;69983;42.370;-71.210;2023-08-24T03:52:54;101740.64;;;24.95;22.47
80629;BME280;69983;42.370;-71.210;2023-08-24T03:54:54;101735.93;;;25.56;22.12
80629;BME280;69983;42.370;-71.210;2023-08-24T03:56:54;101735.53;;;25.80;21.88
80629;BME280;69983;42.370;-71.210;2023-08-24T03:58:54;101730.25;;;25.65;22.07
80629;BME280;69983;42.370;-71.210;2023-08-24T04:00:54;101729.26;;;25.67;22.15
80629;BME280;69983;42.370;-71.210;2023-08-24T04:02:56;101723.63;;;25.54;22.16
80629;BME280;69983;42.370;-71.210;2023-08-24T04:05:00;101725.10;;;26.19;21.93
80629;BME280;69983;42.370;-71.210;2023-08-24T04:06:56;101728.21;;;25.68;22.20
80629;BME280;69983;42.370;-71.210;2023-08-24T04:08:56;101731.02;;;26.24;21.82
80629;BME280;69983;42.370;-71.210;2023-08-24T04:10:58;101730.17;;;25.86;21.73
80629;BME280;69983;42.370;-71.210;2023-08-24T04:13:02;101725.24;;;25.63;21.76
80629;BME280;69983;42.370;-71.210;2023-08-24T04:14:57;101718.01;;;25.33;21.78
80629;BME280;69983;42.370;-71.210;2023-08-24T04:16:57;101719.00;;;24.76;22.17
80629;BME280;69983;42.370;-71.210;2023-08-24T04:19:00;101716.82;;;25.49;21.84
80629;BME280;69983;42.370;-71.210;2023-08-24T04:20:58;101718.09;;;26.52;21.52
80629;BME280;69983;42.370;-71.210;2023-08-24T04:22:59;101718.77;;;25.67;21.69
80629;BME280;69983;42.370;-71.210;2023-08-24T04:25:00;101716.93;;;26.22;21.54
80629;BME280;69983;42.370;-71.210;2023-08-24T04:27:00;101710.67;;;26.45;21.47
80629;BME280;69983;42.370;-71.210;2023-08-24T04:29:03;101711.80;;;26.20;21.73
80629;BME280;69983;42.370;-71.210;2023-08-24T04:31:01;101710.89;;;25.75;21.78
80629;BME280;69983;42.370;-71.210;2023-08-24T04:33:02;101711.67;;;25.42;21.75
80629;BME280;69983;42.370;-71.210;2023-08-24T04:35:03;101715.61;;;25.13;21.81
80629;BME280;69983;42.370;-71.210;2023-08-24T04:37:03;101719.67;;;25.17;22.20
80629;BME280;69983;42.370;-71.210;2023-08-24T04:39:03;101721.14;;;25.72;21.72
80629;BME280;69983;42.370;-71.210;2023-08-24T04:41:06;101721.39;;;26.36;21.55
80629;BME280;69983;42.370;-71.210;2023-08-24T04:43:04;101721.63;;;26.23;21.57
80629;BME280;69983;42.370;-71.210;2023-08-24T04:45:05;101723.86;;;25.95;21.52
80629;BME280;69983;42.370;-71.210;2023-08-24T04:47:07;101721.23;;;25.99;21.76
80629;BME280;69983;42.370;-71.210;2023-08-24T04:49:05;101722.51;;;26.13;21.76
80629;BME280;69983;42.370;-71.210;2023-08-24T04:51:06;101724.88;;;25.90;21.81
80629;BME280;69983;42.370;-71.210;2023-08-24T04:53:07;101724.61;;;26.65;21.70
80629;BME280;69983;42.370;-71.210;2023-08-24T04:55:08;101722.52;;;26.56;21.62
80629;BME280;69983;42.370;-71.210;2023-08-24T04:57:09;101719.08;;;25.56;22.00
80629;BME280;69983;42.370;-71.210;2023-08-24T04:59:08;101717.77;;;25.03;22.13
80629;BME280;69983;42.370;-71.210;2023-08-24T05:01:11;101714.20;;;25.29;21.65
80629;BME280;69983;42.370;-71.210;2023-08-24T05:03:12;101712.22;;;24.86;22.14
80629;BME280;69983;42.370;-71.210;2023-08-24T05:05:20;101705.73;;;25.83;21.71
80629;BME280;69983;42.370;-71.210;2023-08-24T05:07:11;101703.77;;;25.76;21.87
80629;BME280;69983;42.370;-71.210;2023-08-24T05:09:12;101702.83;;;25.59;22.12
80629;BME280;69983;42.370;-71.210;2023-08-24T05:11:16;101702.32;;;24.99;22.51
80629;BME280;69983;42.370;-71.210;2023-08-24T05:13:12;101702.56;;;24.82;22.58
80629;BME280;69983;42.370;-71.210;2023-08-24T05:15:20;101703.21;;;24.75;22.90
80629;BME280;69983;42.370;-71.210;2023-08-24T05:17:12;101703.53;;;24.89;22.86
80629;BME280;69983;42.370;-71.210;2023-08-24T05:19:16;101705.67;;;25.97;22.01
80629;BME280;69983;42.370;-71.210;2023-08-24T05:21:21;101709.25;;;25.26;22.13
80629;BME280;69983;42.370;-71.210;2023-08-24T05:23:16;101710.52;;;24.34;22.63
80629;BME280;69983;42.370;-71.210;2023-08-24T05:25:17;101709.67;;;24.01;22.73
80629;BME280;69983;42.370;-71.210;2023-08-24T05:27:21;101705.15;;;24.07;22.92
80629;BME280;69983;42.370;-71.210;2023-08-24T05:29:16;101702.44;;;24.36;22.81
80629;BME280;69983;42.370;-71.210;2023-08-24T05:31:16;101695.78;;;24.47;22.83
80629;BME280;69983;42.370;-71.210;2023-08-24T05:33:17;101692.80;;;24.66;22.80
80629;BME280;69983;42.370;-71.210;2023-08-24T05:35:22;101691.86;;;24.49;23.03
80629;BME280;69983;42.370;-71.210;2023-08-24T05:37:17;101696.71;;;24.81;22.88
80629;BME280;69983;42.370;-71.210;2023-08-24T05:39:20;101696.17;;;24.53;22.99
80629;BME280;69983;42.370;-71.210;2023-08-24T05:41:18;101699.03;;;24.44;23.14
80629;BME280;69983;42.370;-71.210;2023-08-24T05:43:24;101696.98;;;25.19;22.97
80629;BME280;69983;42.370;-71.210;2023-08-24T05:45:24;101698.38;;;25.56;22.21
80629;BME280;69983;42.370;-71.210;2023-08-24T05:47:22;101697.60;;;25.08;22.23
80629;BME280;69983;42.370;-71.210;2023-08-24T05:49:21;101702.82;;;24.29;22.58
80629;BME280;69983;42.370;-71.210;2023-08-24T05:51:22;101701.78;;;24.41;22.83
80629;BME280;69983;42.370;-71.210;2023-08-24T05:53:22;101696.65;;;24.42;22.73
80629;BME280;69983;42.370;-71.210;2023-08-24T05:55:24;101693.30;;;25.13;22.51
80629;BME280;69983;42.370;-71.210;2023-08-24T05:57:24;101689.69;;;25.05;22.47
80629;BME280;69983;42.370;-71.210;2023-08-24T05:59:23;101692.46;;;25.57;22.39
80629;BME280;69983;42.370;-71.210;2023-08-24T06:01:25;101697.04;;;25.76;22.14
80629;BME280;69983;42.370;-71.210;2023-08-24T06:03:25;101698.39;;;25.45;22.22
80629;BME280;69983;42.370;-71.210;2023-08-24T06:05:26;101700.30;;;26.06;22.02
80629;BME280;69983;42.370;-71.210;2023-08-24T06:07:27;101695.92;;;26.21;21.90
80629;BME280;69983;42.370;-71.210;2023-08-24T06:09:26;101688.59;;;24.36;21.73
80629;BME280;69983;42.370;-71.210;2023-08-24T06:11:27;101688.59;;;24.07;21.17
80629;BME280;69983;42.370;-71.210;2023-08-24T06:13:28;101683.37;;;24.48;20.59
80629;BME280;69983;42.370;-71.210;2023-08-24T06:15:28;101681.50;;;24.34;20.96
80629;BME280;69983;42.370;-71.210;2023-08-24T06:17:29;101683.82;;;24.31;20.91
80629;BME280;69983;42.370;-71.210;2023-08-24T06:19:28;101686.25;;;26.32;20.55
80629;BME280;69983;42.370;-71.210;2023-08-24T06:21:30;101688.70;;;26.40;21.06
80629;BME280;69983;42.370;-71.210;2023-08-24T06:23:31;101688.24;;;26.34;21.36
80629;BME280;69983;42.370;-71.210;2023-08-24T06:25:32;101685.03;;;25.69;21.77
80629;BME280;69983;42.370;-71.210;2023-08-24T06:27:31;101683.44;;;25.80;21.97
80629;BME280;69983;42.370;-71.210;2023-08-24T06:29:31;101679.54;;;24.93;22.35
80629;BME280;69983;42.370;-71.210;2023-08-24T06:31:32;101681.84;;;25.98;21.90
80629;BME280;69983;42.370;-71.210;2023-08-24T06:33:35;101680.36;;;25.89;21.71
80629;BME280;69983;42.370;-71.210;2023-08-24T06:35:34;101675.42;;;25.66;21.59
80629;BME280;69983;42.370;-71.210;2023-08-24T06:37:33;101673.43;;;25.51;21.61
80629;BME280;69983;42.370;-71.210;2023-08-24T06:39:34;101671.50;;;24.13;22.69
80629;BME280;69983;42.370;-71.210;2023-08-24T06:41:35;101669.36;;;24.78;22.47
80629;BME280;69983;42.370;-71.210;2023-08-24T06:43:35;101667.05;;;24.97;22.24
80629;BME280;69983;42.370;-71.210;2023-08-24T06:45:35;101666.39;;;25.39;22.19
80629;BME280;69983;42.370;-71.210;2023-08-24T06:47:34;101667.31;;;24.97;22.42
80629;BME280;69983;42.370;-71.210;2023-08-24T06:49:36;101670.20;;;25.07;22.42
80629;BME280;69983;42.370;-71.210;2023-08-24T06:51:34;101676.36;;;24.94;22.57
80629;BME280;69983;42.370;-71.210;2023-08-24T06:53:36;101682.46;;;25.70;22.27
80629;BME280;69983;42.370;-71.210;2023-08-24T06:55:37;101678.54;;;25.50;22.28
80629;BME280;69983;42.370;-71.210;2023-08-24T06:57:37;101681.46;;;25.66;22.25
80629;BME280;69983;42.370;-71.210;2023-08-24T06:59:37;101682.32;;;25.28;22.58
80629;BME280;69983;42.370;-71.210;2023-08-24T07:01:38;101682.79;;;25.36;22.57
80629;BME280;69983;42.370;-71.210;2023-08-24T07:03:38;101685.56;;;25.88;22.28
80629;BME280;69983;42.370;-71.210;2023-08-24T07:05:38;101687.63;;;25.78;21.99
80629;BME280;69983;42.370;-71.210;2023-08-24T07:07:38;101689.98;;;25.75;21.66
80629;BME280;69983;42.370;-71.210;2023-08-24T07:09:38;101687.35;;;25.68;21.65
80629;BME280;69983;42.370;-71.210;2023-08-24T07:11:37;101687.12;;;24.79;22.42
80629;BME280;69983;42.370;-71.210;2023-08-24T07:13:38;101686.27;;;25.14;22.20
80629;BME280;69983;42.370;-71.210;2023-08-24T07:15:38;101682.92;;;25.08;22.32
80629;BME280;69983;42.370;-71.210;2023-08-24T07:17:39;101680.36;;;25.19;22.17
80629;BME280;69983;42.370;-71.210;2023-08-24T07:19:38;101678.48;;;25.38;22.30
80629;BME280;69983;42.370;-71.210;2023-08-24T07:21:38;101678.78;;;25.45;22.29
80629;BME280;69983;42.370;-71.210;2023-08-24T07:23:39;101674.25;;;25.34;22.46
80629;BME280;69983;42.370;-71.210;2023-08-24T07:25:42;101673.29;;;25.10;22.54
80629;BME280;69983;42.370;-71.210;2023-08-24T07:27:36;101673.58;;;25.41;22.40
80629;BME280;69983;42.370;-71.210;2023-08-24T07:29:37;101676.78;;;25.67;22.30
80629;BME280;69983;42.370;-71.210;2023-08-24T07:31:37;101681.38;;;25.47;22.56
80629;BME280;69983;42.370;-71.210;2023-08-24T07:33:37;101686.14;;;25.71;22.44
80629;BME280;69983;42.370;-71.210;2023-08-24T07:35:37;101683.33;;;25.72;22.54
80629;BME280;69983;42.370;-71.210;2023-08-24T07:37:37;101685.40;;;25.79;22.52
80629;BME280;69983;42.370;-71.210;2023-08-24T07:39:38;101693.32;;;25.91;22.23
80629;BME280;69983;42.370;-71.210;2023-08-24T07:41:37;101692.82;;;25.73;22.04
80629;BME280;69983;42.370;-71.210;2023-08-24T07:43:38;101693.68;;;24.81;22.63
80629;BME280;69983;42.370;-71.210;2023-08-24T07:45:38;101697.88;;;24.77;22.79
80629;BME280;69983;42.370;-71.210;2023-08-24T07:47:38;101694.41;;;24.86;22.73
80629;BME280;69983;42.370;-71.210;2023-08-24T07:49:38;101694.06;;;24.97;22.70
80629;BME280;69983;42.370;-71.210;2023-08-24T07:51:38;101690.08;;;25.30;22.53
80629;BME280;69983;42.370;-71.210;2023-08-24T07:53:38;101691.91;;;24.92;22.87
80629;BME280;69983;42.370;-71.210;2023-08-24T07:55:38;101693.44;;;25.82;22.45
80629;BME280;69983;42.370;-71.210;2023-08-24T07:57:38;101695.07;;;25.17;22.82
80629;BME280;69983;42.370;-71.210;2023-08-24T07:59:39;101695.45;;;25.52;22.72
80629;BME280;69983;42.370;-71.210;2023-08-24T08:01:39;101695.82;;;25.53;22.79
80629;BME280;69983;42.370;-71.210;2023-08-24T08:03:39;101697.78;;;25.55;22.63
80629;BME280;69983;42.370;-71.210;2023-08-24T08:05:39;101697.13;;;25.36;22.80
80629;BME280;69983;42.370;-71.210;2023-08-24T08:07:39;101698.03;;;25.91;22.61
80629;BME280;69983;42.370;-71.210;2023-08-24T08:09:40;101697.37;;;25.72;22.62
80629;BME280;69983;42.370;-71.210;2023-08-24T08:11:39;101696.27;;;25.34;22.93
80629;BME280;69983;42.370;-71.210;2023-08-24T08:13:39;101699.01;;;25.81;22.42
80629;BME280;69983;42.370;-71.210;2023-08-24T08:15:39;101700.30;;;25.67;22.42
80629;BME280;69983;42.370;-71.210;2023-08-24T08:17:39;101704.07;;;25.24;22.37
80629;BME280;69983;42.370;-71.210;2023-08-24T08:19:40;101703.82;;;24.94;22.54
80629;BME280;69983;42.370;-71.210;2023-08-24T08:21:39;101700.64;;;25.00;22.64
80629;BME280;69983;42.370;-71.210;2023-08-24T08:23:40;101700.48;;;24.98;22.72
80629;BME280;69983;42.370;-71.210;2023-08-24T08:25:43;101699.12;;;25.12;22.89
80629;BME280;69983;42.370;-71.210;2023-08-24T08:27:43;101701.40;;;24.33;23.44
80629;BME280;69983;42.370;-71.210;2023-08-24T08:29:44;101695.88;;;24.84;22.91
80629;BME280;69983;42.370;-71.210;2023-08-24T08:31:44;101693.78;;;25.18;22.86
80629;BME280;69983;42.370;-71.210;2023-08-24T08:33:44;101691.35;;;24.76;23.20
80629;BME280;69983;42.370;-71.210;2023-08-24T08:35:46;101692.03;;;24.97;23.08
80629;BME280;69983;42.370;-71.210;2023-08-24T08:37:45;101693.97;;;24.85;23.02
80629;BME280;69983;42.370;-71.210;2023-08-24T08:39:46;101697.21;;;25.62;22.38
80629;BME280;69983;42.370;-71.210;2023-08-24T08:41:47;101696.37;;;25.17;22.34
80629;BME280;69983;42.370;-71.210;2023-08-24T08:43:46;101701.84;;;24.85;22.44
80629;BME280;69983;42.370;-71.210;2023-08-24T08:45:47;101705.13;;;24.94;22.72
80629;BME280;69983;42.370;-71.210;2023-08-24T08:47:47;101711.14;;;24.42;22.90
80629;BME280;69983;42.370;-71.210;2023-08-24T08:49:49;101705.31;;;24.65;22.76
80629;BME280;69983;42.370;-71.210;2023-08-24T08:51:48;101704.64;;;24.82;22.87
80629;BME280;69983;42.370;-71.210;2023-08-24T08:53:48;101697.45;;;24.61;22.93
80629;BME280;69983;42.370;-71.210;2023-08-24T08:55:49;101698.04;;;24.79;22.86
80629;BME280;69983;42.370;-71.210;2023-08-24T08:57:50;101700.46;;;24.98;22.94
80629;BME280;69983;42.370;-71.210;2023-08-24T08:59:49;101705.66;;;24.87;23.10
80629;BME280;69983;42.370;-71.210;2023-08-24T09:01:50;101710.40;;;24.59;23.17
80629;BME280;69983;42.370;-71.210;2023-08-24T09:03:50;101711.76;;;24.99;23.13
80629;BME280;69983;42.370;-71.210;2023-08-24T09:05:51;101710.41;;;24.47;23.20
80629;BME280;69983;42.370;-71.210;2023-08-24T09:07:50;101709.47;;;24.77;23.17
80629;BME280;69983;42.370;-71.210;2023-08-24T09:09:51;101711.22;;;25.29;23.03
80629;BME280;69983;42.370;-71.210;2023-08-24T09:11:52;101710.18;;;25.65;22.90
80629;BME280;69983;42.370;-71.210;2023-08-24T09:13:51;101710.27;;;25.55;22.27
80629;BME280;69983;42.370;-71.210;2023-08-24T09:16:06;101707.09;;;24.89;22.49
80629;BME280;69983;42.370;-71.210;2023-08-24T09:17:54;101706.25;;;24.93;22.38
80629;BME280;69983;42.370;-71.210;2023-08-24T09:19:57;101708.75;;;24.23;23.16
80629;BME280;69983;42.370;-71.210;2023-08-24T09:21:53;101713.57;;;24.47;22.84
80629;BME280;69983;42.370;-71.210;2023-08-24T09:23:55;101715.20;;;24.36;22.97
80629;BME280;69983;42.370;-71.210;2023-08-24T09:25:52;101717.45;;;24.56;22.89
80629;BME280;69983;42.370;-71.210;2023-08-24T09:27:58;101717.66;;;24.48;22.82
80629;BME280;69983;42.370;-71.210;2023-08-24T09:29:53;101724.48;;;24.72;23.08
80629;BME280;69983;42.370;-71.210;2023-08-24T09:31:53;101724.22;;;24.66;22.99
80629;BME280;69983;42.370;-71.210;2023-08-24T09:34:01;101727.60;;;24.85;23.09
80629;BME280;69983;42.370;-71.210;2023-08-24T09:35:54;101724.78;;;24.56;23.18
80629;BME280;69983;42.370;-71.210;2023-08-24T09:37:53;101722.12;;;25.02;22.89
80629;BME280;69983;42.370;-71.210;2023-08-24T09:40:07;101720.38;;;24.78;23.11
80629;BME280;69983;42.370;-71.210;2023-08-24T09:41:53;101718.39;;;24.78;22.98
80629;BME280;69983;42.370;-71.210;2023-08-24T09:43:53;101715.64;;;24.97;23.07
80629;BME280;69983;42.370;-71.210;2023-08-24T09:45:53;101716.29;;;25.40;22.82
80629;BME280;69983;42.370;-71.210;2023-08-24T09:47:54;101723.32;;;24.84;22.66
80629;BME280;69983;42.370;-71.210;2023-08-24T09:49:53;101724.70;;;25.20;22.43
80629;BME280;69983;42.370;-71.210;2023-08-24T09:51:54;101730.98;;;24.60;22.70
80629;BME280;69983;42.370;-71.210;2023-08-24T09:53:55;101735.99;;;24.56;22.93
80629;BME280;69983;42.370;-71.210;2023-08-24T09:55:58;101732.38;;;24.37;23.13
80629;BME280;69983;42.370;-71.210;2023-08-24T09:57:55;101734.35;;;24.09;23.25
80629;BME280;69983;42.370;-71.210;2023-08-24T09:59:54;101735.45;;;24.32;23.12
80629;BME280;69983;42.370;-71.210;2023-08-24T10:01:56;101736.10;;;24.58;22.99
80629;BME280;69983;42.370;-71.210;2023-08-24T10:03:55;101735.58;;;24.61;23.00
80629;BME280;69983;42.370;-71.210;2023-08-24T10:05:56;101735.70;;;24.57;23.08
80629;BME280;69983;42.370;-71.210;2023-08-24T10:07:56;101736.84;;;24.64;23.10
80629;BME280;69983;42.370;-71.210;2023-08-24T10:09:59;101736.01;;;24.97;22.88
80629;BME280;69983;42.370;-71.210;2023-08-24T10:11:58;101739.55;;;24.62;23.21